Time;durP1;ratioP1;P1;durP2;ratioP2;P2;SDS_P1;SDS_P2;PMS_P1;PMS_P2;Temp;Humidity;BMP_temperature;BMP_pressure;BME280_temperature;BME280_humidity;BME280_pressure;Samples;Min_cycle;Max_cycle;Signal;HPM_P1;HPM_P2
2023/07/22 00:02:17;;;;;;;12.88;5.78;;;12.80;99.90;;;;;;5134475;27;20483;-60
2023/07/22 00:04:43;;;;;;;13.30;5.70;;;12.60;99.90;;;;;;5134306;27;20035;-60
2023/07/22 00:07:09;;;;;;;12.82;5.90;;;12.70;99.90;;;;;;5135586;27;20046;-61
2023/07/22 00:09:35;;;;;;;7.88;4.47;;;12.50;99.90;;;;;;5134079;27;20042;-61
2023/07/22 00:12:01;;;;;;;11.05;5.15;;;13.90;99.90;;;;;;5134274;27;20403;-61
2023/07/22 00:14:27;;;;;;;9.10;4.25;;;12.40;99.90;;;;;;5116117;27;20444;-62
2023/07/22 00:16:53;;;;;;;9.27;4.78;;;12.30;99.90;;;;;;5135977;27;20049;-62
2023/07/22 00:19:19;;;;;;;12.80;4.88;;;12.40;99.90;;;;;;5133865;27;20166;-62
2023/07/22 00:21:44;;;;;;;10.90;4.82;;;12.30;99.90;;;;;;5135886;27;20050;-62
2023/07/22 00:24:10;;;;;;;13.05;5.40;;;12.30;99.90;;;;;;5134191;27;20039;-62
2023/07/22 00:26:36;;;;;;;11.25;5.72;;;12.30;99.90;;;;;;5134991;27;20250;-63
2023/07/22 00:29:02;;;;;;;9.80;4.82;;;12.40;99.90;;;;;;5133769;27;20043;-62
2023/07/22 00:31:28;;;;;;;13.38;5.85;;;12.40;99.90;;;;;;5116416;27;20039;-62
2023/07/22 00:33:54;;;;;;;13.60;5.38;;;12.40;99.90;;;;;;5134367;27;20106;-62
2023/07/22 00:36:20;;;;;;;13.40;6.85;;;12.30;99.90;;;;;;5135735;27;20046;-62
2023/07/22 00:38:46;;;;;;;11.93;5.95;;;12.20;99.90;;;;;;5135138;27;20035;-62
2023/07/22 00:41:11;;;;;;;14.63;6.78;;;12.10;99.90;;;;;;5136414;27;20043;-63
2023/07/22 00:43:38;;;;;;;15.80;6.47;;;12.00;99.90;;;;;;5133532;27;20138;-62
2023/07/22 00:46:04;;;;;;;13.35;6.20;;;11.90;99.90;;;;;;5137111;27;20050;-62
2023/07/22 00:48:30;;;;;;;12.15;6.60;;;11.80;99.90;;;;;;5134670;27;20565;-62
2023/07/22 00:50:57;;;;;;;12.50;7.05;;;11.70;99.90;;;;;;5135054;27;20058;-62
2023/07/22 00:53:23;;;;;;;14.10;6.80;;;12.00;99.90;;;;;;5134276;27;20107;-62
2023/07/22 00:55:49;;;;;;;12.60;6.70;;;11.70;99.90;;;;;;5135350;27;20039;-62
2023/07/22 00:58:15;;;;;;;14.95;6.32;;;11.60;99.90;;;;;;5135912;27;20046;-62
2023/07/22 01:00:41;;;;;;;15.80;7.05;;;11.90;99.90;;;;;;5112486;27;20070;-62
2023/07/22 01:03:07;;;;;;;19.65;7.85;;;11.70;99.90;;;;;;5134662;27;20661;-62
2023/07/22 01:05:34;;;;;;;12.05;6.35;;;11.80;99.90;;;;;;5134378;27;20055;-62
2023/07/22 01:08:00;;;;;;;15.02;6.90;;;11.80;99.90;;;;;;5117242;27;20051;-62
2023/07/22 01:10:26;;;;;;;13.68;7.15;;;11.80;99.90;;;;;;5135155;27;20396;-62
2023/07/22 01:12:52;;;;;;;12.00;6.15;;;11.80;99.90;;;;;;5134116;27;20414;-62
2023/07/22 01:15:18;;;;;;;14.00;6.00;;;11.90;99.90;;;;;;5133852;27;20546;-62
2023/07/22 01:17:44;;;;;;;13.43;6.07;;;12.00;99.90;;;;;;5134505;27;20046;-62
2023/07/22 01:20:10;;;;;;;12.35;5.40;;;11.80;99.90;;;;;;5132495;27;20035;-62
2023/07/22 01:22:36;;;;;;;13.55;5.78;;;11.90;99.90;;;;;;5114996;27;20035;-62
2023/07/22 01:25:03;;;;;;;11.18;5.82;;;12.00;99.90;;;;;;5133491;27;20103;-62
2023/07/22 01:27:29;;;;;;;11.48;5.40;;;11.70;99.90;;;;;;5114222;27;20042;-62
2023/07/22 01:29:55;;;;;;;14.05;5.78;;;11.90;99.90;;;;;;5094891;27;21057;-62
2023/07/22 01:32:21;;;;;;;12.40;5.40;;;11.90;99.90;;;;;;5133506;27;20034;-61
2023/07/22 01:34:46;;;;;;;13.55;5.25;;;11.90;99.90;;;;;;5132404;27;20403;-61
2023/07/22 01:37:12;;;;;;;10.52;5.10;;;11.80;99.90;;;;;;5134208;27;20039;-61
2023/07/22 01:39:38;;;;;;;11.60;5.28;;;10.20;99.90;;;;;;5114109;27;20027;-61
2023/07/22 01:42:03;;;;;;;11.05;4.57;;;11.80;99.90;;;;;;5134213;27;20042;-61
2023/07/22 01:44:30;;;;;;;9.13;4.82;;;11.60;99.90;;;;;;5111425;27;20034;-61
2023/07/22 01:46:56;;;;;;;11.73;4.97;;;11.50;99.90;;;;;;5132997;27;21391;-62
2023/07/22 01:49:24;;;;;;;13.20;5.50;;;11.50;99.90;;;;;;5133234;27;20061;-61
2023/07/22 01:51:50;;;;;;;10.95;4.75;;;11.60;99.90;;;;;;5134782;27;20099;-61
2023/07/22 01:54:15;;;;;;;11.25;4.85;;;11.60;99.90;;;;;;5133000;27;20066;-62
2023/07/22 01:56:41;;;;;;;8.70;4.70;;;11.30;99.90;;;;;;5115082;27;20422;-62
2023/07/22 01:59:08;;;;;;;10.45;5.22;;;11.40;99.90;;;;;;5131997;27;20567;-61
2023/07/22 02:01:34;;;;;;;12.30;4.90;;;11.50;99.90;;;;;;5134112;27;20107;-62
2023/07/22 02:03:59;;;;;;;12.13;4.25;;;11.20;99.90;;;;;;5131663;27;20046;-61
2023/07/22 02:06:26;;;;;;;9.80;4.60;;;11.30;99.90;;;;;;5113353;27;20278;-61
2023/07/22 02:08:52;;;;;;;9.40;4.70;;;11.20;99.90;;;;;;5107686;27;20047;-61
2023/07/22 02:11:18;;;;;;;9.98;5.00;;;11.30;99.90;;;;;;5136379;27;20499;-61
2023/07/22 02:13:44;;;;;;;8.57;4.72;;;11.30;99.90;;;;;;5133161;27;20490;-61
2023/07/22 02:16:12;;;;;;;8.60;4.53;;;11.10;99.90;;;;;;5115563;27;20043;-61
2023/07/22 02:18:38;;;;;;;9.32;4.30;;;11.20;99.90;;;;;;5133199;27;20070;-61
2023/07/22 02:21:04;;;;;;;10.07;4.60;;;11.20;99.90;;;;;;5133452;27;20119;-60
2023/07/22 02:23:29;;;;;;;11.75;4.90;;;11.00;99.90;;;;;;5132580;27;20127;-61
2023/07/22 02:25:55;;;;;;;11.27;4.75;;;11.30;99.90;;;;;;5134071;27;20646;-61
2023/07/22 02:28:22;;;;;;;10.20;4.93;;;11.00;99.90;;;;;;5131569;27;20049;-61
2023/07/22 02:30:52;;;;;;;11.93;4.60;;;10.90;99.90;;;;;;5110964;27;20043;-61
2023/07/22 02:33:19;;;;;;;11.20;5.07;;;11.10;99.90;;;;;;5132407;27;20490;-60
2023/07/22 02:35:46;;;;;;;10.85;5.10;;;11.00;99.90;;;;;;5133357;27;20045;-61
2023/07/22 02:38:14;;;;;;;13.77;5.22;;;10.90;99.90;;;;;;5134256;27;20035;-60
2023/07/22 02:40:40;;;;;;;9.80;4.78;;;11.10;99.90;;;;;;5114350;27;20576;-60
2023/07/22 02:43:06;;;;;;;10.13;4.88;;;10.90;99.90;;;;;;5134117;27;20599;-60
2023/07/22 02:45:33;;;;;;;12.60;4.85;;;10.90;99.90;;;;;;5115121;27;20031;-60
2023/07/22 02:47:59;;;;;;;11.23;5.10;;;10.80;99.90;;;;;;5131022;27;20396;-60
2023/07/22 02:50:25;;;;;;;10.52;5.03;;;10.60;99.90;;;;;;5112735;27;20098;-61
2023/07/22 02:52:51;;;;;;;12.52;5.07;;;10.50;99.90;;;;;;5131774;27;20471;-61
2023/07/22 02:55:21;;;;;;;10.80;4.32;;;10.80;99.90;;;;;;5132408;27;20038;-60
2023/07/22 02:57:47;;;;;;;9.18;4.15;;;10.60;99.90;;;;;;5132572;27;20148;-60
2023/07/22 03:00:23;;;;;;;10.55;4.85;;;10.60;99.90;;;;;;5132002;27;20123;-60
2023/07/22 03:02:53;;;;;;;8.60;4.00;;;10.60;99.90;;;;;;5113361;27;20046;-61
2023/07/22 03:05:19;;;;;;;10.38;4.53;;;10.60;99.90;;;;;;5131123;27;21077;-60
2023/07/22 03:07:45;;;;;;;14.02;4.15;;;10.50;99.90;;;;;;5113012;27;20449;-60
2023/07/22 03:10:11;;;;;;;11.27;4.55;;;10.60;99.90;;;;;;5131589;27;20096;-60
2023/07/22 03:12:37;;;;;;;10.18;4.82;;;10.70;99.90;;;;;;5131874;27;20075;-60
2023/07/22 03:15:04;;;;;;;10.07;4.40;;;10.70;99.90;;;;;;5131782;27;20459;-61
2023/07/22 03:17:30;;;;;;;7.50;4.28;;;10.60;99.90;;;;;;5132277;27;21935;-61
2023/07/22 03:19:56;;;;;;;9.52;4.97;;;10.50;99.90;;;;;;5113708;27;20041;-60
2023/07/22 03:22:22;;;;;;;12.13;4.95;;;10.60;99.90;;;;;;5130404;27;20035;-60
2023/07/22 03:24:47;;;;;;;11.38;5.10;;;10.50;99.90;;;;;;5130584;27;20631;-61
2023/07/22 03:27:15;;;;;;;8.27;4.18;;;10.50;99.90;;;;;;5131313;27;20159;-60
2023/07/22 03:29:41;;;;;;;10.63;5.55;;;10.50;99.90;;;;;;5133132;27;20158;-60
2023/07/22 03:32:07;;;;;;;11.10;5.40;;;10.60;99.90;;;;;;5131479;27;20125;-61
2023/07/22 03:34:33;;;;;;;14.15;5.00;;;10.00;99.90;;;;;;5130825;27;20042;-60
2023/07/22 03:36:59;;;;;;;13.75;5.80;;;12.20;99.90;;;;;;5131703;27;20403;-60
2023/07/22 03:39:25;;;;;;;12.38;5.75;;;10.50;99.90;;;;;;5133471;27;20478;-60
2023/07/22 03:41:50;;;;;;;12.55;6.15;;;11.30;99.90;;;;;;5133943;27;20049;-60
2023/07/22 03:44:16;;;;;;;12.32;6.20;;;10.80;99.90;;;;;;5131034;27;20130;-60
2023/07/22 03:46:42;;;;;;;14.63;6.50;;;10.90;99.90;;;;;;5130666;27;20035;-60
2023/07/22 03:49:08;;;;;;;11.10;6.10;;;10.70;99.90;;;;;;5131936;27;20410;-60
2023/07/22 03:51:34;;;;;;;15.20;6.35;;;11.00;99.90;;;;;;5132187;27;20051;-60
2023/07/22 03:54:00;;;;;;;12.98;5.80;;;11.00;99.90;;;;;;5131078;27;20090;-60
2023/07/22 03:56:26;;;;;;;13.63;6.50;;;10.90;99.90;;;;;;5130137;27;20132;-60
2023/07/22 03:58:52;;;;;;;12.40;6.68;;;11.20;99.90;;;;;;5131429;27;20059;-60
2023/07/22 04:01:18;;;;;;;14.82;6.13;;;11.20;99.90;;;;;;5130687;27;20038;-60
2023/07/22 04:03:44;;;;;;;19.05;8.35;;;11.30;99.90;;;;;;5131567;27;20051;-60
2023/07/22 04:06:10;;;;;;;14.68;6.88;;;9.40;99.90;;;;;;5130097;27;20203;-60
2023/07/22 04:08:35;;;;;;;14.50;7.10;;;11.30;99.90;;;;;;5131185;27;20046;-60
2023/07/22 04:11:02;;;;;;;14.05;6.85;;;13.10;99.90;;;;;;5130479;27;20452;-60
2023/07/22 04:13:29;;;;;;;16.90;7.88;;;11.40;99.90;;;;;;5131364;27;20043;-60
2023/07/22 04:15:55;;;;;;;14.23;7.50;;;11.60;99.90;;;;;;5130065;27;20441;-60
2023/07/22 04:18:20;;;;;;;14.10;7.47;;;11.40;99.90;;;;;;5110863;27;20035;-60
2023/07/22 04:20:50;;;;;;;14.13;7.43;;;11.60;99.90;;;;;;5129871;27;20628;-60
2023/07/22 04:23:16;;;;;;;15.27;8.05;;;11.50;99.90;;;;;;5112507;27;20129;-60
2023/07/22 04:25:45;;;;;;;15.07;7.45;;;10.90;99.90;;;;;;5112247;27;20042;-60
2023/07/22 04:28:11;;;;;;;14.73;7.35;;;11.80;99.90;;;;;;5130587;27;20039;-60
2023/07/22 04:30:37;;;;;;;13.95;7.30;;;11.50;99.90;;;;;;5130243;27;20039;-60
2023/07/22 04:33:05;;;;;;;15.18;7.03;;;11.60;99.90;;;;;;5110850;27;20117;-60
2023/07/22 04:35:38;;;;;;;17.60;7.63;;;11.60;99.90;;;;;;5130167;27;20095;-60
2023/07/22 04:38:04;;;;;;;15.27;7.30;;;11.90;99.90;;;;;;5129681;27;20050;-60
2023/07/22 04:40:30;;;;;;;13.93;7.07;;;11.80;99.90;;;;;;5111293;27;20427;-60
2023/07/22 04:42:56;;;;;;;14.07;7.28;;;11.80;99.90;;;;;;5131995;27;20134;-60
2023/07/22 04:45:26;;;;;;;15.65;8.75;;;11.80;99.90;;;;;;5131085;27;20113;-60
2023/07/22 04:47:51;;;;;;;12.45;7.43;;;12.10;99.90;;;;;;5134259;27;20433;-60
2023/07/22 04:50:17;;;;;;;12.88;7.13;;;11.90;99.90;;;;;;5134559;27;20626;-60
2023/07/22 04:52:46;;;;;;;14.40;8.25;;;11.90;99.90;;;;;;5116335;27;20039;-60
2023/07/22 04:55:13;;;;;;;15.15;7.70;;;11.90;99.90;;;;;;5135931;27;20031;-60
2023/07/22 04:57:43;;;;;;;17.27;8.18;;;12.00;99.90;;;;;;5135677;27;20130;-60
2023/07/22 05:00:11;;;;;;;15.55;8.10;;;12.00;99.90;;;;;;5136196;27;20129;-61
2023/07/22 05:02:38;;;;;;;15.45;7.75;;;12.30;99.90;;;;;;5135130;27;20049;-60
2023/07/22 05:05:04;;;;;;;15.35;8.00;;;12.20;99.90;;;;;;5135741;27;20678;-60
2023/07/22 05:07:30;;;;;;;15.93;8.50;;;12.30;99.90;;;;;;5135322;27;20095;-60
2023/07/22 05:09:56;;;;;;;15.82;8.05;;;12.30;99.90;;;;;;5134494;27;20055;-60
2023/07/22 05:12:21;;;;;;;14.07;8.23;;;12.20;99.90;;;;;;5134343;27;20510;-60
2023/07/22 05:14:48;;;;;;;18.30;8.40;;;12.20;99.90;;;;;;5114851;27;20319;-60
2023/07/22 05:17:13;;;;;;;14.90;8.60;;;12.60;99.90;;;;;;5134247;27;20674;-61
2023/07/22 05:19:39;;;;;;;15.75;9.20;;;12.40;99.90;;;;;;5133498;27;20139;-60
2023/07/22 05:22:05;;;;;;;13.90;8.30;;;12.60;99.90;;;;;;5133881;27;20051;-60
2023/07/22 05:24:31;;;;;;;15.05;8.23;;;12.70;99.90;;;;;;5133562;27;20086;-60
2023/07/22 05:26:57;;;;;;;16.50;8.95;;;12.80;99.90;;;;;;5133720;27;20040;-60
2023/07/22 05:29:22;;;;;;;15.10;9.05;;;12.90;99.90;;;;;;5133094;27;20464;-61
2023/07/22 05:31:48;;;;;;;14.45;8.23;;;12.80;99.90;;;;;;5133620;27;20122;-60
2023/07/22 05:34:14;;;;;;;14.95;8.35;;;12.90;99.90;;;;;;5133860;27;20057;-60
2023/07/22 05:36:40;;;;;;;14.02;8.30;;;13.00;99.90;;;;;;5132983;27;20347;-60
2023/07/22 05:39:06;;;;;;;15.02;8.57;;;13.20;99.90;;;;;;5133851;27;20550;-60
2023/07/22 05:41:35;;;;;;;14.48;8.65;;;13.30;99.90;;;;;;5133183;27;20047;-60
2023/07/22 05:44:00;;;;;;;13.98;8.40;;;13.30;99.90;;;;;;5133313;27;20529;-61
2023/07/22 05:46:26;;;;;;;13.98;8.57;;;13.40;99.90;;;;;;5132666;27;20034;-60
2023/07/22 05:48:52;;;;;;;13.02;8.48;;;13.60;99.90;;;;;;5132863;27;20035;-61
2023/07/22 05:51:18;;;;;;;13.43;8.45;;;13.70;99.90;;;;;;5132836;27;20130;-60
2023/07/22 05:53:44;;;;;;;14.35;8.25;;;13.60;99.90;;;;;;5133423;27;20061;-62
2023/07/22 05:56:10;;;;;;;15.02;9.52;;;13.80;99.90;;;;;;5134326;27;20122;-61
2023/07/22 05:58:36;;;;;;;13.82;8.63;;;13.90;99.90;;;;;;5131606;27;20055;-61
2023/07/22 06:01:02;;;;;;;15.43;8.95;;;14.00;99.90;;;;;;5135457;27;20101;-61
2023/07/22 06:03:28;;;;;;;16.60;9.52;;;13.90;99.90;;;;;;5132771;27;20267;-61
2023/07/22 06:05:54;;;;;;;14.27;9.23;;;14.00;99.90;;;;;;5133164;27;20108;-61
2023/07/22 06:08:20;;;;;;;13.82;8.77;;;13.90;99.90;;;;;;5134048;27;20035;-61
2023/07/22 06:10:45;;;;;;;15.52;9.63;;;14.10;99.90;;;;;;5114961;27;20046;-61
2023/07/22 06:13:11;;;;;;;18.67;10.02;;;14.00;99.90;;;;;;5134456;27;20027;-61
2023/07/22 06:15:37;;;;;;;14.90;9.65;;;14.20;99.90;;;;;;5133357;27;20035;-61
2023/07/22 06:18:03;;;;;;;16.52;10.27;;;14.50;99.90;;;;;;5133827;27;20050;-61
2023/07/22 06:20:29;;;;;;;18.95;9.73;;;14.70;99.90;;;;;;5132516;27;20856;-61
2023/07/22 06:22:55;;;;;;;19.73;11.05;;;14.80;99.90;;;;;;5134179;27;20039;-61
2023/07/22 06:25:20;;;;;;;17.70;10.52;;;14.80;99.90;;;;;;5106710;27;20039;-61
2023/07/22 06:27:46;;;;;;;17.00;10.57;;;14.70;99.90;;;;;;5133156;27;20069;-61
2023/07/22 06:30:12;;;;;;;15.55;9.88;;;14.90;99.90;;;;;;5132364;27;20125;-61
2023/07/22 06:32:38;;;;;;;14.13;9.45;;;15.30;99.90;;;;;;5132653;27;20050;-61
2023/07/22 06:35:05;;;;;;;15.48;9.73;;;15.30;99.90;;;;;;5096747;27;20212;-61
2023/07/22 06:37:31;;;;;;;14.75;9.95;;;15.70;99.90;;;;;;5131356;27;20053;-61
2023/07/22 06:39:57;;;;;;;15.05;9.57;;;15.80;99.90;;;;;;5133272;27;20410;-61
2023/07/22 06:42:22;;;;;;;12.75;9.48;;;16.10;99.90;;;;;;5133601;27;20133;-61
2023/07/22 06:44:49;;;;;;;15.15;10.07;;;16.00;99.90;;;;;;5132585;27;20042;-61
2023/07/22 06:47:14;;;;;;;14.88;9.65;;;16.10;99.90;;;;;;5132138;27;20035;-62
2023/07/22 06:49:41;;;;;;;15.40;8.98;;;16.30;99.90;;;;;;5130785;27;20047;-61
2023/07/22 06:52:07;;;;;;;15.55;8.88;;;16.40;99.90;;;;;;5133294;27;20042;-61
2023/07/22 06:54:34;;;;;;;15.38;9.40;;;16.40;99.90;;;;;;5131911;27;20051;-61
2023/07/22 06:56:59;;;;;;;15.73;9.65;;;16.50;99.90;;;;;;5130858;27;20070;-61
2023/07/22 06:59:26;;;;;;;13.98;9.98;;;16.40;99.90;;;;;;5132044;27;20444;-63
2023/07/22 07:01:52;;;;;;;16.95;11.20;;;16.40;99.90;;;;;;5131812;27;20416;-61
2023/07/22 07:04:18;;;;;;;16.80;10.45;;;16.60;99.90;;;;;;5130209;27;20059;-61
2023/07/22 07:06:45;;;;;;;16.60;9.98;;;16.40;99.90;;;;;;5132613;27;20043;-61
2023/07/22 07:09:11;;;;;;;18.90;10.30;;;16.50;99.90;;;;;;5132256;27;20046;-61
2023/07/22 07:11:37;;;;;;;18.08;11.40;;;16.40;99.90;;;;;;5133095;27;20031;-61
2023/07/22 07:14:03;;;;;;;17.33;11.07;;;16.30;99.90;;;;;;5133527;27;20533;-61
2023/07/22 07:16:31;;;;;;;14.60;9.90;;;16.40;99.90;;;;;;5132819;27;20471;-61
2023/07/22 07:18:58;;;;;;;14.32;9.88;;;16.60;99.90;;;;;;5133152;27;20767;-62
2023/07/22 07:21:23;;;;;;;15.88;9.85;;;16.50;99.90;;;;;;5132054;27;20094;-61
2023/07/22 07:23:50;;;;;;;15.23;9.63;;;16.30;99.90;;;;;;5131770;27;20592;-62
2023/07/22 07:26:17;;;;;;;16.30;10.60;;;16.20;99.90;;;;;;5131746;27;20440;-61
2023/07/22 07:28:43;;;;;;;14.15;10.02;;;16.20;99.90;;;;;;5133269;27;20033;-62
2023/07/22 07:31:09;;;;;;;15.57;9.50;;;16.40;99.90;;;;;;5131912;27;20351;-62
2023/07/22 07:33:35;;;;;;;13.13;10.02;;;16.60;99.90;;;;;;5111894;27;20042;-62
2023/07/22 07:36:01;;;;;;;16.80;11.18;;;17.20;99.90;;;;;;5131357;27;20054;-62
2023/07/22 07:38:27;;;;;;;15.60;10.32;;;17.90;99.90;;;;;;5131882;27;20078;-62
2023/07/22 07:40:55;;;;;;;15.20;9.93;;;18.20;99.90;;;;;;5131893;27;20143;-62
2023/07/22 07:43:21;;;;;;;13.73;9.50;;;18.40;99.90;;;;;;5132547;27;20091;-62
2023/07/22 07:45:47;;;;;;;15.77;11.02;;;18.60;99.90;;;;;;5131304;27;20035;-62
2023/07/22 07:48:12;;;;;;;13.90;9.75;;;18.20;99.90;;;;;;5078774;27;20038;-62
2023/07/22 07:50:38;;;;;;;13.60;9.57;;;18.30;99.90;;;;;;5130258;27;21560;-62
2023/07/22 07:53:04;;;;;;;12.60;9.05;;;18.40;99.90;;;;;;5131182;27;20547;-62
2023/07/22 07:55:30;;;;;;;10.68;7.97;;;18.60;99.90;;;;;;5112849;27;20118;-62
2023/07/22 07:57:55;;;;;;;16.35;8.00;;;19.10;99.90;;;;;;5131220;27;20087;-62
2023/07/22 08:00:21;;;;;;;12.88;8.77;;;19.80;99.90;;;;;;5130596;27;20058;-62
2023/07/22 08:02:47;;;;;;;11.75;8.50;;;20.00;99.90;;;;;;5131852;27;20479;-62
2023/07/22 08:05:13;;;;;;;12.55;8.30;;;19.80;99.90;;;;;;5111896;27;20047;-62
2023/07/22 08:07:39;;;;;;;10.85;7.88;;;19.70;99.90;;;;;;5111901;27;20043;-62
2023/07/22 08:10:07;;;;;;;11.15;7.97;;;19.50;99.90;;;;;;5131403;27;20110;-63
2023/07/22 08:12:33;;;;;;;11.38;8.15;;;19.10;99.90;;;;;;5112987;27;20037;-63
2023/07/22 08:14:59;;;;;;;12.15;8.18;;;18.90;99.90;;;;;;5131259;27;20049;-62
2023/07/22 08:17:25;;;;;;;12.60;8.93;;;18.60;99.90;;;;;;5106345;27;20042;-62
2023/07/22 08:19:51;;;;;;;12.27;7.97;;;18.40;99.90;;;;;;5130738;27;20043;-62
2023/07/22 08:22:18;;;;;;;14.10;8.48;;;18.30;99.90;;;;;;5133617;27;20620;-62
2023/07/22 08:24:43;;;;;;;12.93;8.23;;;18.40;99.90;;;;;;5134418;27;20127;-62
2023/07/22 08:27:09;;;;;;;14.02;9.52;;;18.30;99.90;;;;;;5115311;27;20180;-62
2023/07/22 08:29:36;;;;;;;15.15;9.32;;;18.60;99.90;;;;;;5134976;27;20046;-62
2023/07/22 08:32:02;;;;;;;11.20;8.48;;;18.50;99.90;;;;;;5120675;27;20522;-62
2023/07/22 08:34:28;;;;;;;12.43;8.27;;;18.10;99.90;;;;;;5116169;27;20062;-62
2023/07/22 08:36:53;;;;;;;12.52;8.75;;;18.20;99.90;;;;;;5134221;27;20130;-62
2023/07/22 08:39:19;;;;;;;13.15;8.27;;;18.30;99.90;;;;;;5134961;27;20235;-62
2023/07/22 08:41:49;;;;;;;12.65;8.38;;;18.60;99.90;;;;;;5101419;27;20039;-63
2023/07/22 08:44:18;;;;;;;10.35;8.15;;;18.90;99.90;;;;;;5136787;27;20061;-62
2023/07/22 08:46:46;;;;;;;11.82;7.75;;;18.90;99.90;;;;;;5133922;27;20129;-62
2023/07/22 08:49:12;;;;;;;12.52;8.35;;;18.90;99.90;;;;;;5134815;27;20039;-63
2023/07/22 08:51:39;;;;;;;10.35;7.22;;;18.90;99.90;;;;;;5134490;27;20042;-62
2023/07/22 08:54:05;;;;;;;12.05;8.15;;;18.60;99.90;;;;;;5115138;27;20051;-62
2023/07/22 08:56:32;;;;;;;12.95;8.10;;;18.90;99.90;;;;;;5135324;27;20616;-62
2023/07/22 08:58:58;;;;;;;12.40;8.00;;;18.90;99.90;;;;;;5134758;27;20050;-62
2023/07/22 09:01:24;;;;;;;13.93;8.98;;;18.80;99.90;;;;;;5132844;27;20027;-62
2023/07/22 09:03:52;;;;;;;14.43;8.95;;;18.50;99.90;;;;;;5134640;27;20447;-62
2023/07/22 09:06:19;;;;;;;13.07;8.95;;;18.30;99.90;;;;;;5134772;27;20050;-62
2023/07/22 09:08:45;;;;;;;14.10;9.57;;;18.50;99.90;;;;;;5133714;27;20522;-62
2023/07/22 09:11:11;;;;;;;16.73;10.50;;;18.00;99.90;;;;;;5133062;27;20052;-62
2023/07/22 09:13:39;;;;;;;22.48;11.63;;;18.10;99.90;;;;;;5134971;27;20031;-62
2023/07/22 09:16:06;;;;;;;21.15;11.65;;;17.20;99.90;;;;;;5132081;27;20041;-62
2023/07/22 09:18:34;;;;;;;15.35;9.55;;;17.10;99.90;;;;;;5133232;27;20042;-62
2023/07/22 09:21:00;;;;;;;14.82;9.88;;;16.40;99.90;;;;;;5133233;27;20179;-61
2023/07/22 09:23:38;;;;;;;18.88;9.88;;;16.40;99.90;;;;;;5132346;27;20026;-62
2023/07/22 09:26:12;;;;;;;13.93;8.80;;;16.20;99.90;;;;;;5134004;27;20046;-62
2023/07/22 09:28:52;;;;;;;12.90;7.97;;;16.20;99.90;;;;;;5132109;27;22022;-62
2023/07/22 09:31:20;;;;;;;12.10;7.60;;;16.10;99.90;;;;;;5133934;27;20057;-62
2023/07/22 09:33:46;;;;;;;12.98;8.15;;;15.80;99.90;;;;;;5114178;27;20399;-61
2023/07/22 09:36:12;;;;;;;14.27;8.52;;;15.70;99.90;;;;;;5114275;27;20034;-61
2023/07/22 09:38:38;;;;;;;12.77;8.70;;;16.00;99.90;;;;;;5113449;27;20035;-61
2023/07/22 09:41:03;;;;;;;14.38;9.45;;;16.00;99.90;;;;;;5133446;27;20045;-61
2023/07/22 09:43:30;;;;;;;12.90;8.88;;;16.10;99.90;;;;;;5132129;27;20432;-60
2023/07/22 09:46:05;;;;;;;15.52;10.18;;;16.10;99.90;;;;;;5114798;27;20584;-61
2023/07/22 09:48:38;;;;;;;16.52;10.13;;;16.20;99.90;;;;;;5131849;27;20031;-61
2023/07/22 09:51:04;;;;;;;17.67;9.90;;;16.40;99.90;;;;;;5131567;27;20043;-61
2023/07/22 09:53:30;;;;;;;14.13;10.18;;;16.20;99.90;;;;;;5132940;27;20043;-61
2023/07/22 09:56:04;;;;;;;17.20;10.20;;;16.30;99.90;;;;;;5133580;27;20038;-60
2023/07/22 09:58:32;;;;;;;15.63;9.77;;;16.40;99.90;;;;;;5132012;27;21081;-61
2023/07/22 10:01:00;;;;;;;14.63;9.25;;;16.40;99.90;;;;;;5132313;27;20046;-61
2023/07/22 10:03:30;;;;;;;14.07;9.45;;;16.40;99.90;;;;;;5132401;27;20077;-61
2023/07/22 10:05:59;;;;;;;15.20;10.02;;;16.30;99.90;;;;;;5132502;27;20515;-61
2023/07/22 10:08:29;;;;;;;16.50;10.40;;;16.20;99.90;;;;;;5134037;27;20035;-61
2023/07/22 10:10:57;;;;;;;17.60;10.05;;;16.20;99.90;;;;;;5133581;27;20039;-61
2023/07/22 10:13:24;;;;;;;14.63;9.75;;;16.10;99.90;;;;;;5133995;27;20563;-62
2023/07/22 10:15:51;;;;;;;16.33;10.07;;;16.30;99.90;;;;;;5132320;27;20057;-62
2023/07/22 10:18:17;;;;;;;13.50;9.18;;;16.10;99.90;;;;;;5114032;27;20358;-62
2023/07/22 10:20:44;;;;;;;14.15;8.95;;;16.10;99.90;;;;;;5133276;27;20042;-63
2023/07/22 10:23:13;;;;;;;17.75;9.90;;;16.10;99.90;;;;;;5133268;27;20046;-62
2023/07/22 10:25:39;;;;;;;12.25;7.25;;;16.20;99.90;;;;;;5132152;27;20070;-62
2023/07/22 10:28:06;;;;;;;11.05;7.20;;;16.20;99.90;;;;;;5132715;27;20074;-62
2023/07/22 10:30:33;;;;;;;12.43;8.00;;;16.10;99.90;;;;;;5131895;27;20050;-62
2023/07/22 10:32:59;;;;;;;10.85;6.60;;;16.10;99.90;;;;;;5134271;27;20112;-63
2023/07/22 10:35:30;;;;;;;11.18;6.22;;;16.10;99.90;;;;;;5132209;27;20598;-61
2023/07/22 10:38:08;;;;;;;10.63;5.95;;;16.10;99.90;;;;;;5132844;27;20062;-61
2023/07/22 10:40:51;;;;;;;10.52;6.18;;;16.20;99.90;;;;;;5131776;27;20066;-61
2023/07/22 10:43:23;;;;;;;7.97;5.40;;;16.00;99.90;;;;;;5132935;27;20515;-61
2023/07/22 10:45:54;;;;;;;7.90;5.80;;;16.10;99.90;;;;;;5132859;27;20042;-61
2023/07/22 10:48:23;;;;;;;11.10;6.50;;;15.90;99.90;;;;;;5132470;27;20034;-61
2023/07/22 10:50:53;;;;;;;11.70;5.93;;;15.90;99.90;;;;;;5113690;27;20529;-61
2023/07/22 10:53:25;;;;;;;8.02;5.88;;;15.70;99.90;;;;;;5131694;27;20616;-61
2023/07/22 10:56:20;;;;;;;9.15;6.07;;;15.60;99.90;;;;;;5112230;27;20229;-61
2023/07/22 10:58:46;;;;;;;8.93;6.70;;;15.60;99.90;;;;;;5130086;27;20038;-61
2023/07/22 11:01:28;;;;;;;13.60;6.75;;;15.80;99.90;;;;;;5130945;27;20043;-61
2023/07/22 11:04:10;;;;;;;8.65;6.18;;;15.50;99.90;;;;;;5130790;27;20355;-62
2023/07/22 11:06:39;;;;;;;10.50;7.13;;;15.80;99.90;;;;;;5131649;27;20034;-61
2023/07/22 11:09:06;;;;;;;10.60;7.20;;;15.70;99.90;;;;;;5112544;27;20047;-61
2023/07/22 11:11:43;;;;;;;9.18;6.70;;;15.70;99.90;;;;;;5131498;27;20133;-61
2023/07/22 11:14:38;;;;;;;11.57;7.13;;;15.70;99.90;;;;;;5134248;27;20512;-61
2023/07/22 11:17:05;;;;;;;12.75;7.68;;;15.90;99.90;;;;;;5130704;27;20043;-61
2023/07/22 11:19:33;;;;;;;9.98;6.68;;;15.80;99.90;;;;;;5131790;27;20102;-61
2023/07/22 11:21:59;;;;;;;9.93;7.05;;;15.60;99.90;;;;;;5131768;27;20051;-61
2023/07/22 11:24:25;;;;;;;12.32;8.00;;;16.00;99.90;;;;;;5112371;27;20574;-61
2023/07/22 11:26:52;;;;;;;10.90;7.00;;;15.90;99.90;;;;;;5131032;27;20042;-61
2023/07/22 11:29:18;;;;;;;10.20;7.15;;;15.80;99.90;;;;;;5133504;27;20034;-61
2023/07/22 11:31:46;;;;;;;11.15;7.47;;;15.70;99.90;;;;;;5133562;27;20027;-62
2023/07/22 11:34:12;;;;;;;13.18;8.15;;;15.60;99.90;;;;;;5131904;27;20430;-61
2023/07/22 11:36:38;;;;;;;10.82;7.43;;;15.60;99.90;;;;;;5131452;27;20042;-61
2023/07/22 11:39:15;;;;;;;13.15;8.95;;;15.60;99.90;;;;;;5131478;27;20130;-63
2023/07/22 11:41:42;;;;;;;13.13;9.38;;;15.30;99.90;;;;;;5131031;27;20031;-62
2023/07/22 11:44:09;;;;;;;13.18;10.02;;;15.60;99.90;;;;;;5132982;27;20064;-62
2023/07/22 11:47:07;;;;;;;13.02;8.77;;;15.70;99.90;;;;;;5112517;27;20436;-63
2023/07/22 11:49:35;;;;;;;11.38;9.23;;;15.60;99.90;;;;;;5130872;27;20460;-62
2023/07/22 11:52:03;;;;;;;12.40;9.57;;;15.60;99.90;;;;;;5131840;27;20050;-62
2023/07/22 11:54:31;;;;;;;13.52;9.05;;;15.70;99.90;;;;;;5130060;27;20098;-63
2023/07/22 11:56:57;;;;;;;10.25;8.13;;;15.50;99.90;;;;;;5132562;27;20447;-64
2023/07/22 11:59:34;;;;;;;14.55;9.68;;;15.60;99.90;;;;;;5135726;27;20042;-62
2023/07/22 12:02:01;;;;;;;14.15;9.63;;;15.70;99.90;;;;;;5134842;27;20398;-62
2023/07/22 12:04:27;;;;;;;14.30;9.50;;;15.50;99.90;;;;;;5134000;27;20200;-62
2023/07/22 12:06:53;;;;;;;12.85;8.52;;;15.60;99.90;;;;;;5136856;27;20554;-61
2023/07/22 12:09:19;;;;;;;14.93;10.20;;;15.60;99.90;;;;;;5135265;27;20038;-61
2023/07/22 12:11:44;;;;;;;13.95;10.50;;;15.70;99.90;;;;;;5135017;27;20157;-61
2023/07/22 12:14:12;;;;;;;14.73;10.80;;;15.80;99.90;;;;;;5135221;27;20047;-61
2023/07/22 12:16:40;;;;;;;14.10;11.52;;;15.70;99.90;;;;;;5134483;27;20411;-61
2023/07/22 12:19:07;;;;;;;19.23;11.70;;;15.80;99.90;;;;;;5135669;27;20061;-63
2023/07/22 12:21:33;;;;;;;15.23;11.90;;;15.80;99.90;;;;;;5135334;27;20054;-62
2023/07/22 12:23:59;;;;;;;15.45;12.18;;;16.00;99.90;;;;;;5115303;27;20038;-62
2023/07/22 12:26:25;;;;;;;17.77;12.70;;;15.80;99.90;;;;;;5136294;27;20039;-62
2023/07/22 12:28:52;;;;;;;18.65;13.35;;;15.70;99.90;;;;;;5134730;27;20042;-62
2023/07/22 12:31:18;;;;;;;18.20;12.68;;;15.60;99.90;;;;;;5133163;27;20034;-61
2023/07/22 12:33:44;;;;;;;15.32;12.50;;;15.60;99.90;;;;;;5134788;27;20038;-62
2023/07/22 12:36:10;;;;;;;13.18;11.57;;;15.70;99.90;;;;;;5134464;27;20035;-64